Time,TemperatureF,DewpointF,PressureIn,WindDirection,WindDirectionDegrees,WindSpeedMPH,WindSpeedGustMPH,Humidity,HourlyPrecipIn,Conditions,Clouds,dailyrainin,SoftwareType,DateUTC
2013-02-09 00:01:00,41.0,31.0,30.03,NNE,26,1.0,2.0,68,0.00,,,0.00,,2013-02-09 08:01:00,
2013-02-09 00:11:00,41.0,31.0,30.03,NNE,26,1.0,2.0,68,0.00,,,0.00,,2013-02-09 08:11:00,
2013-02-09 00:21:00,40.0,33.0,30.03,WNW,296,0.0,2.0,76,0.00,,,0.00,,2013-02-09 08:21:00,
2013-02-09 00:31:00,39.0,33.0,30.03,NE,49,2.0,2.0,79,0.00,,,0.00,,2013-02-09 08:31:00,
2013-02-09 00:41:00,39.0,33.0,30.03,NE,49,2.0,2.0,79,0.00,,,0.00,,2013-02-09 08:41:00,
2013-02-09 00:52:00,39.0,33.0,30.03,NW,323,1.0,2.0,78,0.00,,,0.00,,2013-02-09 08:52:00,
2013-02-09 01:02:00,39.0,32.0,30.03,NW,317,0.0,2.0,77,0.00,,,0.00,,2013-02-09 09:02:00,
2013-02-09 01:11:00,39.0,32.0,30.03,NW,317,0.0,2.0,77,0.00,,,0.00,,2013-02-09 09:11:00,
2013-02-09 01:21:00,38.0,32.0,30.03,NW,317,0.0,2.0,78,0.00,,,0.00,,2013-02-09 09:21:00,
2013-02-09 01:31:00,38.0,32.0,30.03,North,350,0.0,2.0,78,0.00,,,0.00,,2013-02-09 09:31:00,
2013-02-09 01:41:00,38.0,32.0,30.03,North,350,0.0,2.0,78,0.00,,,0.00,,2013-02-09 09:41:00,
2013-02-09 01:51:00,37.0,31.0,30.03,NNW,348,1.0,2.0,80,0.00,,,0.00,,2013-02-09 09:51:00,
2013-02-09 02:01:00,37.0,31.0,30.03,NNW,348,1.0,2.0,80,0.00,,,0.00,,2013-02-09 10:01:00,
2013-02-09 02:11:00,37.0,31.0,30.03,NNW,348,1.0,2.0,80,0.00,,,0.00,,2013-02-09 10:11:00,
2013-02-09 02:21:00,37.0,32.0,30.03,WNW,294,1.0,2.0,82,0.00,,,0.00,,2013-02-09 10:21:00,
2013-02-09 02:31:00,37.0,31.0,30.03,WNW,294,1.0,2.0,80,0.00,,,0.00,,2013-02-09 10:31:00,
2013-02-09 02:41:00,37.0,31.0,30.03,WNW,294,1.0,2.0,80,0.00,,,0.00,,2013-02-09 10:41:00,
2013-02-09 02:51:00,37.0,32.0,30.03,WNW,292,1.0,3.0,82,0.00,,,0.00,,2013-02-09 10:51:00,
2013-02-09 03:01:00,36.0,32.0,30.04,WNW,303,1.0,2.0,85,0.00,,,0.00,,2013-02-09 11:01:00,
2013-02-09 03:11:00,36.0,32.0,30.04,WNW,303,1.0,2.0,85,0.00,,,0.00,,2013-02-09 11:11:00,
2013-02-09 03:21:00,36.0,32.0,30.04,NNW,329,1.0,5.0,86,0.00,,,0.00,,2013-02-09 11:21:00,
2013-02-09 03:31:00,35.0,31.0,30.04,North,11,2.0,3.0,86,0.00,,,0.00,,2013-02-09 11:31:00,
2013-02-09 03:41:00,35.0,31.0,30.04,North,11,2.0,3.0,86,0.00,,,0.00,,2013-02-09 11:41:00,
2013-02-09 03:52:00,35.0,32.0,30.04,NNE,26,1.0,3.0,87,0.00,,,0.00,,2013-02-09 11:52:00,
2013-02-09 04:02:00,35.0,31.0,30.03,ENE,75,1.0,3.0,85,0.00,,,0.00,,2013-02-09 12:02:00,
2013-02-09 04:11:00,35.0,31.0,30.03,ENE,75,1.0,3.0,85,0.00,,,0.00,,2013-02-09 12:11:00,
2013-02-09 04:21:00,36.0,31.0,30.03,ENE,64,2.0,3.0,82,0.00,,,0.00,,2013-02-09 12:21:00,
2013-02-09 04:32:00,36.0,31.0,30.03,ENE,66,1.0,2.0,81,0.00,,,0.00,,2013-02-09 12:32:00,
2013-02-09 04:42:00,36.0,31.0,30.03,ENE,66,1.0,2.0,81,0.00,,,0.00,,2013-02-09 12:42:00,
2013-02-09 04:52:00,36.0,30.0,30.04,NNW,335,1.0,2.0,80,0.00,,,0.00,,2013-02-09 12:52:00,
2013-02-09 05:02:00,36.0,32.0,30.04,NNE,15,1.0,2.0,84,0.00,,,0.00,,2013-02-09 13:02:00,
2013-02-09 05:11:00,36.0,32.0,30.04,NNE,15,1.0,2.0,84,0.00,,,0.00,,2013-02-09 13:11:00,
2013-02-09 05:21:00,35.0,31.0,30.03,NNE,24,1.0,3.0,84,0.00,,,0.00,,2013-02-09 13:21:00,
2013-02-09 05:31:00,36.0,31.0,30.03,WNW,298,1.0,3.0,82,0.00,,,0.00,,2013-02-09 13:31:00,
2013-02-09 05:42:00,36.0,31.0,30.03,WNW,298,1.0,3.0,82,0.00,,,0.00,,2013-02-09 13:42:00,
2013-02-09 05:51:00,36.0,28.0,30.04,WNW,301,1.0,2.0,72,0.00,,,0.00,,2013-02-09 13:51:00,
2013-02-09 06:01:00,38.0,28.0,30.03,WNW,287,1.0,5.0,67,0.00,,,0.00,,2013-02-09 14:01:00,
2013-02-09 06:11:00,38.0,28.0,30.03,WNW,287,1.0,5.0,67,0.00,,,0.00,,2013-02-09 14:11:00,
2013-02-09 06:21:00,38.0,30.0,30.03,WNW,298,1.0,4.0,73,0.00,,,0.00,,2013-02-09 14:21:00,
2013-02-09 06:31:00,37.0,27.0,30.04,NE,46,1.0,3.0,68,0.00,,,0.00,,2013-02-09 14:31:00,
2013-02-09 06:41:00,37.0,27.0,30.04,NE,46,1.0,3.0,68,0.00,,,0.00,,2013-02-09 14:41:00,
2013-02-09 06:52:00,39.0,27.0,30.04,WSW,246,1.0,2.0,61,0.00,,,0.00,,2013-02-09 14:52:00,
2013-02-09 07:01:00,39.0,26.0,30.04,WSW,247,1.0,2.0,60,0.00,,,0.00,,2013-02-09 15:01:00,
2013-02-09 07:11:00,39.0,26.0,30.04,WSW,247,1.0,2.0,60,0.00,,,0.00,,2013-02-09 15:11:00,
2013-02-09 07:21:00,39.0,26.0,30.04,NE,34,1.0,2.0,59,0.00,,,0.00,,2013-02-09 15:21:00,
2013-02-09 07:31:00,39.0,25.0,30.05,NE,34,1.0,2.0,58,0.00,,,0.00,,2013-02-09 15:31:00,
2013-02-09 07:41:00,39.0,25.0,30.05,NE,34,1.0,2.0,58,0.00,,,0.00,,2013-02-09 15:41:00,
2013-02-09 07:51:00,39.0,27.0,30.05,NE,44,1.0,2.0,61,0.00,,,0.00,,2013-02-09 15:51:00,
2013-02-09 08:01:00,39.0,27.0,30.05,NNE,24,1.0,2.0,61,0.00,,,0.00,,2013-02-09 16:01:00,
2013-02-09 08:11:00,39.0,27.0,30.05,NNE,24,1.0,2.0,61,0.00,,,0.00,,2013-02-09 16:11:00,
2013-02-09 08:21:00,40.0,29.0,30.05,NNE,24,1.0,1.0,64,0.00,,,0.00,,2013-02-09 16:21:00,
2013-02-09 08:31:00,40.0,27.0,30.05,SE,125,1.0,2.0,60,0.00,,,0.00,,2013-02-09 16:31:00,
2013-02-09 08:41:00,40.0,27.0,30.05,SE,125,1.0,2.0,60,0.00,,,0.00,,2013-02-09 16:41:00,
2013-02-09 08:51:00,42.0,29.0,30.06,SW,236,1.0,2.0,60,0.00,,,0.00,,2013-02-09 16:51:00,
2013-02-09 09:01:00,43.0,30.0,30.06,WSW,242,1.0,2.0,61,0.00,,,0.00,,2013-02-09 17:01:00,
2013-02-09 09:11:00,43.0,30.0,30.06,WSW,242,1.0,2.0,61,0.00,,,0.00,,2013-02-09 17:11:00,
2013-02-09 09:21:00,44.0,33.0,30.06,WSW,247,1.0,3.0,65,0.00,,,0.00,,2013-02-09 17:21:00,
2013-02-09 09:31:00,43.0,34.0,30.07,WSW,242,2.0,4.0,69,0.00,,,0.00,,2013-02-09 17:31:00,
2013-02-09 09:41:00,43.0,34.0,30.07,WSW,242,2.0,4.0,69,0.00,,,0.00,,2013-02-09 17:41:00,
2013-02-09 09:52:00,43.0,34.0,30.07,WSW,242,2.0,4.0,69,0.00,,,0.00,,2013-02-09 17:52:00,
2013-02-09 10:01:00,48.0,28.0,30.07,SW,219,2.0,9.0,45,0.00,,,0.00,,2013-02-09 18:01:00,
2013-02-09 10:11:00,48.0,28.0,30.07,SW,219,2.0,9.0,45,0.00,,,0.00,,2013-02-09 18:11:00,
2013-02-09 10:23:00,49.0,26.0,30.07,East,79,2.0,5.0,41,0.00,,,0.00,,2013-02-09 18:23:00,
2013-02-09 10:31:00,50.0,24.0,30.07,NE,34,3.0,6.0,36,0.00,,,0.00,,2013-02-09 18:31:00,
2013-02-09 10:41:00,50.0,24.0,30.07,NE,34,3.0,6.0,36,0.00,,,0.00,,2013-02-09 18:41:00,
2013-02-09 10:51:00,52.0,26.0,30.07,SSE,155,2.0,6.0,36,0.00,,,0.00,,2013-02-09 18:51:00,
2013-02-09 11:01:00,52.0,23.0,30.08,SSW,196,2.0,8.0,32,0.00,,,0.00,,2013-02-09 19:01:00,
2013-02-09 11:11:00,52.0,23.0,30.08,SSW,196,2.0,8.0,32,0.00,,,0.00,,2013-02-09 19:11:00,
2013-02-09 11:22:00,53.0,26.0,30.08,WSW,242,1.0,6.0,35,0.00,,,0.00,,2013-02-09 19:22:00,
2013-02-09 11:31:00,54.0,24.0,30.08,SSE,162,3.0,8.0,31,0.00,,,0.00,,2013-02-09 19:31:00,
2013-02-09 11:41:00,54.0,24.0,30.08,SSE,162,3.0,8.0,31,0.00,,,0.00,,2013-02-09 19:41:00,
2013-02-09 11:52:00,55.0,26.0,30.08,WSW,246,3.0,7.0,32,0.00,,,0.00,,2013-02-09 19:52:00,
2013-02-09 12:01:00,55.0,26.0,30.08,SSW,206,3.0,5.0,32,0.00,,,0.00,,2013-02-09 20:01:00,
2013-02-09 12:11:00,55.0,26.0,30.08,SSW,206,3.0,5.0,32,0.00,,,0.00,,2013-02-09 20:11:00,
2013-02-09 12:21:00,56.0,23.0,30.07,West,277,2.0,7.0,27,0.00,,,0.00,,2013-02-09 20:21:00,
2013-02-09 12:31:00,57.0,22.0,30.07,ESE,121,3.0,7.0,26,0.00,,,0.00,,2013-02-09 20:31:00,
2013-02-09 12:41:00,57.0,22.0,30.07,ESE,121,3.0,7.0,26,0.00,,,0.00,,2013-02-09 20:41:00,
2013-02-09 12:52:00,57.0,22.0,30.07,SW,236,2.0,6.0,26,0.00,,,0.00,,2013-02-09 20:52:00,
2013-02-09 13:01:00,58.0,22.0,30.06,ENE,76,1.0,4.0,25,0.00,,,0.00,,2013-02-09 21:01:00,
2013-02-09 13:11:00,58.0,22.0,30.06,ENE,76,1.0,4.0,25,0.00,,,0.00,,2013-02-09 21:11:00,
2013-02-09 13:21:00,59.0,23.0,30.06,SSW,212,2.0,6.0,25,0.00,,,0.00,,2013-02-09 21:21:00,
2013-02-09 13:31:00,58.0,23.0,30.06,SSW,202,2.0,6.0,26,0.00,,,0.00,,2013-02-09 21:31:00,
2013-02-09 13:41:00,58.0,23.0,30.06,SSW,202,2.0,6.0,26,0.00,,,0.00,,2013-02-09 21:41:00,
2013-02-09 13:52:00,59.0,22.0,30.06,SSW,207,2.0,7.0,24,0.00,,,0.00,,2013-02-09 21:52:00,
2013-02-09 14:01:00,59.0,25.0,30.05,West,261,2.0,4.0,27,0.00,,,0.00,,2013-02-09 22:01:00,
2013-02-09 14:11:00,59.0,25.0,30.05,West,261,2.0,4.0,27,0.00,,,0.00,,2013-02-09 22:11:00,
2013-02-09 14:21:00,60.0,25.0,30.06,ESE,103,1.0,4.0,26,0.00,,,0.00,,2013-02-09 22:21:00,
2013-02-09 14:31:00,60.0,23.0,30.05,SW,219,1.0,5.0,24,0.00,,,0.00,,2013-02-09 22:31:00,
2013-02-09 14:41:00,60.0,23.0,30.05,SW,219,1.0,5.0,24,0.00,,,0.00,,2013-02-09 22:41:00,
2013-02-09 14:51:00,61.0,25.0,30.05,WSW,257,2.0,4.0,25,0.00,,,0.00,,2013-02-09 22:51:00,
2013-02-09 15:01:00,61.0,23.0,30.05,WSW,250,2.0,3.0,23,0.00,,,0.00,,2013-02-09 23:01:00,
2013-02-09 15:11:00,61.0,23.0,30.05,WSW,250,2.0,3.0,23,0.00,,,0.00,,2013-02-09 23:11:00,
2013-02-09 15:21:00,61.0,24.0,30.06,SE,136,1.0,3.0,24,0.00,,,0.00,,2013-02-09 23:21:00,
2013-02-09 15:31:00,60.0,24.0,30.06,SSW,208,1.0,5.0,25,0.00,,,0.00,,2013-02-09 23:31:00,
2013-02-09 15:41:00,60.0,24.0,30.06,SSW,208,1.0,5.0,25,0.00,,,0.00,,2013-02-09 23:41:00,
2013-02-09 15:52:00,61.0,27.0,30.06,WNW,298,1.0,3.0,27,0.00,,,0.00,,2013-02-09 23:52:00,
2013-02-09 16:02:00,60.0,24.0,30.06,SSE,159,1.0,4.0,25,0.00,,,0.00,,2013-02-10 00:02:00,
2013-02-09 16:11:00,60.0,24.0,30.06,SSE,159,1.0,4.0,25,0.00,,,0.00,,2013-02-10 00:11:00,
2013-02-09 16:21:00,58.0,28.0,30.06,WSW,252,2.0,3.0,31,0.00,,,0.00,,2013-02-10 00:21:00,
2013-02-09 16:32:00,57.0,32.0,30.06,West,279,1.0,4.0,39,0.00,,,0.00,,2013-02-10 00:32:00,
2013-02-09 16:41:00,57.0,32.0,30.06,West,279,1.0,4.0,39,0.00,,,0.00,,2013-02-10 00:41:00,
2013-02-09 16:51:00,56.0,31.0,30.05,WNW,284,2.0,6.0,39,0.00,,,0.00,,2013-02-10 00:51:00,
2013-02-09 17:01:00,54.0,30.0,30.06,WNW,290,1.0,4.0,39,0.00,,,0.00,,2013-02-10 01:01:00,
2013-02-09 17:11:00,54.0,30.0,30.06,WNW,290,1.0,4.0,39,0.00,,,0.00,,2013-02-10 01:11:00,
2013-02-09 17:21:00,54.0,30.0,30.06,WNW,292,2.0,5.0,39,0.00,,,0.00,,2013-02-10 01:21:00,
2013-02-09 17:31:00,53.0,29.0,30.06,WNW,291,1.0,3.0,40,0.00,,,0.00,,2013-02-10 01:31:00,
2013-02-09 17:41:00,53.0,29.0,30.06,WNW,291,1.0,3.0,40,0.00,,,0.00,,2013-02-10 01:41:00,
2013-02-09 17:51:00,52.0,30.0,30.07,WNW,302,2.0,3.0,42,0.00,,,0.00,,2013-02-10 01:51:00,
2013-02-09 18:01:00,51.0,29.0,30.08,WNW,296,1.0,3.0,43,0.00,,,0.00,,2013-02-10 02:01:00,
2013-02-09 18:11:00,51.0,29.0,30.08,WNW,296,1.0,3.0,43,0.00,,,0.00,,2013-02-10 02:11:00,
2013-02-09 18:22:00,48.0,29.0,30.08,WNW,297,1.0,2.0,48,0.00,,,0.00,,2013-02-10 02:22:00,
2013-02-09 18:31:00,47.0,29.0,30.08,WNW,298,1.0,2.0,50,0.00,,,0.00,,2013-02-10 02:31:00,
2013-02-09 18:41:00,47.0,29.0,30.08,WNW,298,1.0,2.0,50,0.00,,,0.00,,2013-02-10 02:41:00,
2013-02-09 18:52:00,47.0,30.0,30.09,WNW,296,1.0,2.0,51,0.00,,,0.00,,2013-02-10 02:52:00,
2013-02-09 19:01:00,46.0,29.0,30.09,WSW,244,0.0,2.0,51,0.00,,,0.00,,2013-02-10 03:01:00,
2013-02-09 19:11:00,46.0,29.0,30.09,WSW,244,0.0,2.0,51,0.00,,,0.00,,2013-02-10 03:11:00,
2013-02-09 19:21:00,46.0,29.0,30.09,NNW,347,1.0,3.0,51,0.00,,,0.00,,2013-02-10 03:21:00,
2013-02-09 19:32:00,45.0,28.0,30.09,NNW,347,1.0,2.0,51,0.00,,,0.00,,2013-02-10 03:32:00,
2013-02-09 19:41:00,45.0,28.0,30.09,NNW,347,1.0,2.0,51,0.00,,,0.00,,2013-02-10 03:41:00,
2013-02-09 19:51:00,45.0,28.0,30.10,NNW,347,1.0,1.0,52,0.00,,,0.00,,2013-02-10 03:51:00,
2013-02-09 20:01:00,45.0,27.0,30.10,NNW,347,1.0,2.0,50,0.00,,,0.00,,2013-02-10 04:01:00,
2013-02-09 20:11:00,45.0,27.0,30.10,NNW,347,1.0,2.0,50,0.00,,,0.00,,2013-02-10 04:11:00,
2013-02-09 20:21:00,45.0,27.0,30.10,NNW,347,0.0,2.0,49,0.00,,,0.00,,2013-02-10 04:21:00,
2013-02-09 20:32:00,45.0,27.0,30.10,NNW,347,1.0,2.0,49,0.00,,,0.00,,2013-02-10 04:32:00,
2013-02-09 20:41:00,45.0,27.0,30.10,NNW,347,1.0,2.0,49,0.00,,,0.00,,2013-02-10 04:41:00,
2013-02-09 20:51:00,45.0,28.0,30.09,NNW,347,1.0,1.0,51,0.00,,,0.00,,2013-02-10 04:51:00,
2013-02-09 21:01:00,45.0,27.0,30.10,NNW,347,1.0,1.0,50,0.00,,,0.00,,2013-02-10 05:01:00,
2013-02-09 21:11:00,45.0,27.0,30.10,NNW,347,1.0,1.0,50,0.00,,,0.00,,2013-02-10 05:11:00,
2013-02-09 21:22:00,45.0,28.0,30.10,NNW,347,1.0,2.0,51,0.00,,,0.00,,2013-02-10 05:22:00,
2013-02-09 21:31:00,45.0,28.0,30.11,NNW,347,1.0,1.0,51,0.00,,,0.00,,2013-02-10 05:31:00,
2013-02-09 21:41:00,45.0,28.0,30.11,NNW,347,1.0,1.0,51,0.00,,,0.00,,2013-02-10 05:41:00,
2013-02-09 21:52:00,45.0,28.0,30.11,NNW,347,1.0,2.0,51,0.00,,,0.00,,2013-02-10 05:52:00,
2013-02-09 22:01:00,45.0,28.0,30.11,NNW,347,0.0,2.0,52,0.00,,,0.00,,2013-02-10 06:01:00,
2013-02-09 22:11:00,45.0,28.0,30.11,NNW,347,0.0,2.0,52,0.00,,,0.00,,2013-02-10 06:11:00,
2013-02-09 22:21:00,45.0,29.0,30.11,NNW,338,1.0,2.0,53,0.00,,,0.00,,2013-02-10 06:21:00,
2013-02-09 22:32:00,45.0,29.0,30.10,NNW,338,1.0,2.0,53,0.00,,,0.00,,2013-02-10 06:32:00,
2013-02-09 22:42:00,45.0,29.0,30.10,NNW,338,1.0,2.0,53,0.00,,,0.00,,2013-02-10 06:42:00,
2013-02-09 22:51:00,44.0,28.0,30.10,NNW,340,1.0,2.0,54,0.00,,,0.00,,2013-02-10 06:51:00,
2013-02-09 23:01:00,44.0,29.0,30.10,NW,313,1.0,2.0,55,0.00,,,0.00,,2013-02-10 07:01:00,
2013-02-09 23:11:00,44.0,29.0,30.10,NW,313,1.0,2.0,55,0.00,,,0.00,,2013-02-10 07:11:00,
2013-02-09 23:21:00,44.0,28.0,30.11,NNW,333,1.0,2.0,54,0.00,,,0.00,,2013-02-10 07:21:00,
2013-02-09 23:31:00,44.0,30.0,30.11,NE,37,2.0,2.0,57,0.00,,,0.00,,2013-02-10 07:31:00,
2013-02-09 23:41:00,44.0,30.0,30.11,NE,37,2.0,2.0,57,0.00,,,0.00,,2013-02-10 07:41:00,
2013-02-09 23:51:00,44.0,30.0,30.11,NE,46,0.0,1.0,57,0.00,,,0.00,,2013-02-10 07:51:00,